Time;durP1;ratioP1;P1;durP2;ratioP2;P2;SDS_P1;SDS_P2;PMS_P1;PMS_P2;Temp;Humidity;BMP_temperature;BMP_pressure;BME280_temperature;BME280_humidity;BME280_pressure;Samples;Min_cycle;Max_cycle;Signal;HPM_P1;HPM_P2
2021/06/14 00:03:01;;;;;;;4.23;2.50;;;;;;;;;;5037689;28;20192;-88
2021/06/14 00:06:05;;;;;;;5.00;2.77;;;;;;;;;;5038709;28;20176;-88
2021/06/14 00:09:10;;;;;;;3.40;2.73;;;;;;;;;;5037612;28;20220;-88
2021/06/14 00:12:20;;;;;;;5.27;2.80;;;;;;;;;;5038365;28;20176;-88
2021/06/14 00:15:26;;;;;;;4.83;2.90;;;;;;;;;;5038030;28;20172;-88
2021/06/14 00:18:33;;;;;;;4.17;2.80;;;;;;;;;;4998470;28;20225;-88
2021/06/14 00:21:38;;;;;;;3.53;2.90;;;;;;;;;;4998386;28;20652;-88
2021/06/14 00:24:42;;;;;;;4.27;2.77;;;;;;;;;;5044524;28;20208;-88
2021/06/14 00:27:47;;;;;;;6.37;2.57;;;;;;;;;;5046298;28;20188;-88
2021/06/14 00:30:52;;;;;;;4.40;2.60;;;;;;;;;;5009708;28;20173;-87
2021/06/14 00:33:56;;;;;;;3.90;2.73;;;;;;;;;;5007941;28;20174;-88
2021/06/14 00:37:00;;;;;;;4.37;2.50;;;;;;;;;;5038163;28;20192;-88
2021/06/14 00:40:05;;;;;;;5.67;2.87;;;;;;;;;;5006411;28;20220;-87
2021/06/14 00:43:11;;;;;;;4.00;2.77;;;;;;;;;;5017705;28;20197;-88
2021/06/14 00:46:15;;;;;;;4.23;2.80;;;;;;;;;;5038082;28;20181;-88
2021/06/14 00:49:20;;;;;;;4.20;2.70;;;;;;;;;;5014281;28;20221;-88
2021/06/14 00:52:25;;;;;;;4.33;2.60;;;;;;;;;;5006151;28;20189;-87
2021/06/14 00:55:29;;;;;;;2.63;2.30;;;;;;;;;;5050515;28;20184;-88
2021/06/14 00:58:35;;;;;;;4.13;3.17;;;;;;;;;;5028056;28;20212;-88
2021/06/14 01:01:39;;;;;;;4.47;3.00;;;;;;;;;;5023895;28;20248;-88
2021/06/14 01:04:44;;;;;;;5.93;3.13;;;;;;;;;;5041439;28;20204;-88
2021/06/14 01:07:49;;;;;;;5.43;2.77;;;;;;;;;;5051069;28;20189;-88
2021/06/14 01:10:56;;;;;;;4.67;2.63;;;;;;;;;;5023960;28;20177;-88
2021/06/14 01:14:37;;;;;;;4.37;2.93;;;;;;;;;;4981925;28;20177;-88
2021/06/14 01:17:59;;;;;;;4.87;2.90;;;;;;;;;;4985085;28;20196;-88
2021/06/14 01:21:11;;;;;;;4.50;3.03;;;;;;;;;;5023878;28;20185;-88
2021/06/14 01:24:45;;;;;;;3.97;2.77;;;;;;;;;;5012177;28;20213;-87
2021/06/14 01:27:57;;;;;;;5.27;2.90;;;;;;;;;;5015368;28;20192;-88
2021/06/14 01:31:03;;;;;;;5.67;3.00;;;;;;;;;;5030125;28;20544;-88
2021/06/14 01:34:10;;;;;;;6.03;3.10;;;;;;;;;;5023588;28;20182;-88
2021/06/14 01:37:16;;;;;;;5.70;2.83;;;;;;;;;;5023525;28;20632;-88
2021/06/14 01:40:22;;;;;;;5.00;3.20;;;;;;;;;;5011997;28;20192;-88
2021/06/14 01:43:31;;;;;;;6.23;2.70;;;;;;;;;;5019734;28;20199;-88
2021/06/14 01:46:38;;;;;;;4.63;2.90;;;;;;;;;;5039731;28;20196;-88
2021/06/14 01:49:43;;;;;;;4.43;2.83;;;;;;;;;;5053520;28;20223;-88
2021/06/14 01:52:57;;;;;;;5.13;3.03;;;;;;;;;;5036095;28;20188;-87
2021/06/14 01:56:04;;;;;;;4.53;3.00;;;;;;;;;;5011930;28;20177;-88
2021/06/14 01:59:14;;;;;;;6.80;3.00;;;;;;;;;;5026126;28;20216;-88
2021/06/14 02:02:20;;;;;;;6.23;3.33;;;;;;;;;;5031330;28;20180;-88
2021/06/14 02:05:28;;;;;;;6.70;3.30;;;;;;;;;;5042147;28;20220;-88
2021/06/14 02:08:32;;;;;;;5.30;3.10;;;;;;;;;;5042500;28;20211;-88
2021/06/14 02:11:41;;;;;;;5.50;3.10;;;;;;;;;;5053789;28;20196;-88
2021/06/14 02:14:47;;;;;;;7.83;3.00;;;;;;;;;;5051324;28;20548;-87
2021/06/14 02:17:56;;;;;;;5.23;3.17;;;;;;;;;;5022400;28;20648;-88
2021/06/14 02:21:01;;;;;;;6.03;3.07;;;;;;;;;;5000081;28;20671;-88
2021/06/14 02:24:05;;;;;;;3.43;2.90;;;;;;;;;;5022317;28;20209;-88
2021/06/14 02:27:12;;;;;;;5.77;3.00;;;;;;;;;;5033600;28;20180;-88
2021/06/14 02:30:21;;;;;;;5.63;3.00;;;;;;;;;;5011081;28;20188;-88
2021/06/14 02:33:26;;;;;;;4.03;3.10;;;;;;;;;;5035368;28;20195;-88
2021/06/14 02:36:43;;;;;;;3.73;2.90;;;;;;;;;;5032601;28;20184;-88
2021/06/14 02:39:52;;;;;;;4.83;3.23;;;;;;;;;;5064246;28;20220;-88
2021/06/14 02:43:00;;;;;;;4.63;2.83;;;;;;;;;;5030491;28;20199;-88
2021/06/14 02:46:10;;;;;;;5.30;3.23;;;;;;;;;;5039257;28;20180;-88
2021/06/14 02:49:15;;;;;;;3.73;2.93;;;;;;;;;;5010604;28;20209;-88
2021/06/14 02:52:20;;;;;;;4.23;3.10;;;;;;;;;;5039337;28;20196;-88
2021/06/14 02:55:31;;;;;;;5.90;3.20;;;;;;;;;;5053068;28;20177;-88
2021/06/14 02:58:43;;;;;;;6.80;3.20;;;;;;;;;;5033442;28;20216;-88
2021/06/14 03:01:50;;;;;;;6.10;3.10;;;;;;;;;;5030076;28;20184;-87
2021/06/14 03:04:57;;;;;;;5.70;3.13;;;;;;;;;;5002148;28;20205;-88
2021/06/14 03:08:03;;;;;;;4.93;2.77;;;;;;;;;;5038416;28;20192;-88
2021/06/14 03:11:08;;;;;;;6.33;3.20;;;;;;;;;;5002126;28;20185;-88
2021/06/14 03:14:14;;;;;;;6.47;3.10;;;;;;;;;;5002176;28;20624;-88
2021/06/14 03:17:21;;;;;;;7.33;3.30;;;;;;;;;;4991118;28;20185;-89
2021/06/14 03:20:27;;;;;;;3.60;3.13;;;;;;;;;;4991611;28;20185;-88
2021/06/14 03:23:31;;;;;;;3.73;3.13;;;;;;;;;;5013321;28;20509;-88
2021/06/14 03:26:40;;;;;;;5.07;3.40;;;;;;;;;;5014006;28;20188;-88
2021/06/14 03:29:48;;;;;;;5.70;2.80;;;;;;;;;;5041210;28;20216;-88
2021/06/14 03:32:54;;;;;;;5.63;3.43;;;;;;;;;;5040463;28;20200;-88
2021/06/14 03:35:58;;;;;;;6.70;3.07;;;;;;;;;;5037193;28;20189;-88
2021/06/14 03:39:03;;;;;;;7.07;3.53;;;;;;;;;;5036592;28;20311;-88
2021/06/14 03:42:07;;;;;;;4.90;3.20;;;;;;;;;;5029439;28;20192;-88
2021/06/14 03:45:12;;;;;;;8.67;3.57;;;;;;;;;;5041426;28;20208;-88
2021/06/14 03:48:16;;;;;;;6.10;2.80;;;;;;;;;;5052041;28;20223;-88
2021/06/14 03:51:21;;;;;;;8.77;3.40;;;;;;;;;;5042900;28;20189;-88
2021/06/14 03:54:25;;;;;;;12.93;3.77;;;;;;;;;;5021429;28;20199;-88
2021/06/14 03:57:29;;;;;;;11.20;3.43;;;;;;;;;;5021173;28;20204;-88
2021/06/14 04:00:33;;;;;;;6.97;3.17;;;;;;;;;;5021792;28;20528;-87
2021/06/14 04:03:38;;;;;;;5.60;3.90;;;;;;;;;;5051927;28;20184;-88
2021/06/14 04:06:42;;;;;;;4.80;3.27;;;;;;;;;;5052559;28;20172;-88
2021/06/14 04:09:46;;;;;;;5.40;3.73;;;;;;;;;;5042613;28;20220;-88
2021/06/14 04:12:51;;;;;;;7.80;3.37;;;;;;;;;;5030595;28;20201;-88
2021/06/14 04:15:55;;;;;;;7.07;3.53;;;;;;;;;;5024836;28;20177;-88
2021/06/14 04:18:59;;;;;;;5.03;3.33;;;;;;;;;;5047413;28;20216;-88
2021/06/14 04:22:04;;;;;;;6.37;3.73;;;;;;;;;;5031178;28;20184;-88
2021/06/14 04:25:09;;;;;;;5.50;3.40;;;;;;;;;;5039129;28;20204;-88
2021/06/14 04:28:13;;;;;;;5.50;3.40;;;;;;;;;;5041364;28;20216;-87
2021/06/14 04:31:17;;;;;;;5.20;3.20;;;;;;;;;;5031687;28;20196;-88
2021/06/14 04:34:22;;;;;;;7.50;4.40;;;;;;;;;;5013155;28;20197;-87
2021/06/14 04:37:26;;;;;;;6.93;3.77;;;;;;;;;;5013255;28;20201;-87
2021/06/14 04:40:30;;;;;;;6.73;3.83;;;;;;;;;;5021216;28;20535;-88
2021/06/14 04:43:34;;;;;;;5.93;4.47;;;;;;;;;;5013794;28;20193;-88
2021/06/14 04:46:39;;;;;;;7.73;3.60;;;;;;;;;;5024518;28;20220;-82
2021/06/14 04:49:43;;;;;;;5.20;3.60;;;;;;;;;;5045381;28;20220;-84
2021/06/14 04:52:47;;;;;;;5.77;3.70;;;;;;;;;;5034182;28;20188;-84
2021/06/14 04:55:53;;;;;;;9.87;3.70;;;;;;;;;;5045846;28;20184;-83
2021/06/14 04:58:57;;;;;;;7.43;4.13;;;;;;;;;;5019407;28;20216;-84
2021/06/14 05:02:02;;;;;;;11.03;4.43;;;;;;;;;;5046636;28;20199;-83
2021/06/14 05:05:06;;;;;;;9.20;3.30;;;;;;;;;;5047377;28;20207;-83
2021/06/14 05:08:17;;;;;;;10.23;3.80;;;;;;;;;;5049476;28;20208;-84
2021/06/14 05:11:21;;;;;;;8.23;3.80;;;;;;;;;;5058057;28;20188;-84
2021/06/14 05:14:25;;;;;;;7.67;3.53;;;;;;;;;;5040323;28;20192;-83
2021/06/14 05:17:30;;;;;;;8.33;4.10;;;;;;;;;;5054253;28;20643;-84
2021/06/14 05:20:34;;;;;;;5.20;3.60;;;;;;;;;;5042190;28;20201;-83
2021/06/14 05:23:38;;;;;;;7.23;3.30;;;;;;;;;;5033261;28;20520;-83
2021/06/14 05:26:43;;;;;;;6.23;3.40;;;;;;;;;;5021892;28;20220;-84
2021/06/14 05:29:47;;;;;;;4.93;3.23;;;;;;;;;;5042605;28;20223;-81
2021/06/14 05:32:51;;;;;;;9.70;3.27;;;;;;;;;;5033230;28;20193;-81
2021/06/14 05:35:56;;;;;;;10.70;3.57;;;;;;;;;;5038125;28;20196;-82
2021/06/14 05:39:01;;;;;;;7.17;3.17;;;;;;;;;;5012177;28;20220;-81
2021/06/14 05:42:06;;;;;;;7.20;3.90;;;;;;;;;;5028758;28;20199;-82
2021/06/14 05:45:10;;;;;;;7.20;3.50;;;;;;;;;;5013499;28;20216;-82
2021/06/14 05:48:14;;;;;;;8.63;3.63;;;;;;;;;;5038700;28;20216;-82
2021/06/14 05:51:18;;;;;;;8.87;3.40;;;;;;;;;;5036232;28;20196;-82
2021/06/14 05:54:23;;;;;;;8.07;3.37;;;;;;;;;;5024179;28;20636;-82
2021/06/14 05:57:27;;;;;;;8.33;3.37;;;;;;;;;;5024564;28;20213;-82
2021/06/14 06:00:31;;;;;;;10.70;3.20;;;;;;;;;;5033695;28;20184;-82
2021/06/14 06:03:35;;;;;;;8.60;3.27;;;;;;;;;;5026201;28;20514;-82
2021/06/14 06:06:39;;;;;;;6.53;3.10;;;;;;;;;;5021013;28;20220;-82
2021/06/14 06:09:44;;;;;;;7.27;3.47;;;;;;;;;;5024166;28;20221;-82
2021/06/14 06:12:48;;;;;;;9.03;3.97;;;;;;;;;;5027855;28;20184;-82
2021/06/14 06:15:52;;;;;;;15.07;3.40;;;;;;;;;;5043789;28;20200;-82
2021/06/14 06:18:56;;;;;;;7.53;3.30;;;;;;;;;;5053869;28;20231;-84
2021/06/14 06:22:01;;;;;;;7.40;2.83;;;;;;;;;;5044251;28;20199;-82
2021/06/14 06:25:08;;;;;;;7.30;3.60;;;;;;;;;;5014012;28;20201;-82
2021/06/14 06:28:13;;;;;;;7.80;3.00;;;;;;;;;;5034906;28;20707;-82
2021/06/14 06:31:18;;;;;;;7.80;3.00;;;;;;;;;;5039700;28;20200;-82
2021/06/14 06:34:22;;;;;;;4.03;3.10;;;;;;;;;;5042397;28;20628;-82
2021/06/14 06:37:27;;;;;;;8.43;3.00;;;;;;;;;;5054096;28;20173;-82
2021/06/14 06:40:31;;;;;;;6.33;2.93;;;;;;;;;;5008884;28;20176;-82
2021/06/14 06:43:35;;;;;;;5.07;3.20;;;;;;;;;;5054055;28;20187;-82
2021/06/14 06:46:40;;;;;;;4.80;3.10;;;;;;;;;;5031573;28;20204;-82
2021/06/14 06:49:44;;;;;;;6.97;3.20;;;;;;;;;;5052825;28;20220;-82
2021/06/14 06:52:49;;;;;;;5.40;3.20;;;;;;;;;;5021516;28;20184;-82
2021/06/14 06:55:54;;;;;;;5.37;3.33;;;;;;;;;;5022620;28;20180;-82
2021/06/14 06:58:58;;;;;;;6.30;3.03;;;;;;;;;;5032639;28;20216;-82
2021/06/14 07:02:03;;;;;;;5.90;3.07;;;;;;;;;;5037650;28;20192;-82
2021/06/14 07:05:08;;;;;;;7.03;2.77;;;;;;;;;;5020771;28;20184;-82
2021/06/14 07:08:12;;;;;;;8.33;3.80;;;;;;;;;;5034483;28;20216;-82
2021/06/14 07:11:16;;;;;;;4.73;2.67;;;;;;;;;;5034809;28;20184;-82
2021/06/14 07:14:20;;;;;;;7.47;3.53;;;;;;;;;;5023390;28;20521;-82
2021/06/14 07:17:25;;;;;;;6.07;2.53;;;;;;;;;;5033630;28;20184;-82
2021/06/14 07:20:29;;;;;;;4.80;2.57;;;;;;;;;;5022316;28;20201;-82
2021/06/14 07:23:34;;;;;;;5.27;2.97;;;;;;;;;;5041117;28;20197;-83
2021/06/14 07:26:38;;;;;;;7.83;2.90;;;;;;;;;;5021898;28;20199;-82
2021/06/14 07:29:42;;;;;;;4.33;2.50;;;;;;;;;;5047122;28;20208;-82
2021/06/14 07:32:47;;;;;;;5.17;2.87;;;;;;;;;;5021889;28;20197;-82
2021/06/14 07:35:51;;;;;;;8.83;2.50;;;;;;;;;;5033658;28;20517;-82
2021/06/14 07:38:55;;;;;;;6.20;2.90;;;;;;;;;;5013118;28;20228;-82
2021/06/14 07:42:00;;;;;;;7.83;2.70;;;;;;;;;;4998872;28;20172;-83
2021/06/14 07:45:05;;;;;;;5.37;2.27;;;;;;;;;;5046814;28;20188;-83
2021/06/14 07:48:10;;;;;;;5.40;2.47;;;;;;;;;;5043461;28;20184;-83
2021/06/14 07:51:15;;;;;;;4.93;2.50;;;;;;;;;;5055423;28;20185;-82
2021/06/14 07:54:19;;;;;;;11.10;2.90;;;;;;;;;;5046190;28;20551;-83
2021/06/14 07:57:23;;;;;;;5.50;2.60;;;;;;;;;;5045539;28;20180;-83
2021/06/14 08:00:28;;;;;;;6.03;2.50;;;;;;;;;;5046032;28;20180;-83
2021/06/14 08:03:32;;;;;;;5.67;2.30;;;;;;;;;;5024094;28;20184;-83
2021/06/14 08:06:36;;;;;;;5.57;2.30;;;;;;;;;;5057248;28;20204;-83
2021/06/14 08:09:40;;;;;;;8.30;2.80;;;;;;;;;;5056722;28;20220;-83
2021/06/14 08:12:49;;;;;;;12.07;2.93;;;;;;;;;;5031610;28;20203;-83
2021/06/14 08:15:54;;;;;;;6.27;2.63;;;;;;;;;;5037734;28;20196;-83
2021/06/14 08:22:22;;;;;;;4.53;1.90;;;;;;;;;;5038009;28;20666;-83
2021/06/14 08:25:26;;;;;;;4.40;2.50;;;;;;;;;;5026655;28;20192;-83
2021/06/14 08:28:30;;;;;;;6.40;2.50;;;;;;;;;;5025657;28;20216;-83
2021/06/14 08:31:35;;;;;;;4.47;2.50;;;;;;;;;;5031336;28;20196;-83
2021/06/14 08:34:39;;;;;;;4.25;2.63;;;;;;;;;;5037977;28;20203;-83
2021/06/14 08:37:45;;;;;;;5.53;2.55;;;;;;;;;;5037743;28;20196;-83
2021/06/14 08:40:50;;;;;;;4.95;2.13;;;;;;;;;;5036345;28;20177;-83
2021/06/14 08:43:58;;;;;;;3.75;2.10;;;;;;;;;;5048283;28;20183;-83
2021/06/14 08:47:03;;;;;;;4.90;2.25;;;;;;;;;;5013629;28;20211;-83
2021/06/14 08:50:11;;;;;;;7.20;2.33;;;;;;;;;;5035874;28;20220;-83
2021/06/14 08:53:16;;;;;;;3.63;2.10;;;;;;;;;;5013453;28;20194;-83
2021/06/14 08:56:23;;;;;;;5.95;2.38;;;;;;;;;;5016053;28;20177;-84
2021/06/14 08:59:27;;;;;;;6.13;2.60;;;;;;;;;;5018365;28;20229;-84
2021/06/14 09:02:32;;;;;;;3.83;2.20;;;;;;;;;;5025107;28;20540;-84
2021/06/14 09:05:36;;;;;;;4.88;2.55;;;;;;;;;;5031374;28;20202;-84
2021/06/14 09:09:04;;;;;;;7.60;2.42;;;;;;;;;;5037243;28;20562;-83
2021/06/14 09:12:08;;;;;;;8.52;2.13;;;;;;;;;;5049154;28;20198;-84
2021/06/14 09:15:13;;;;;;;6.97;2.58;;;;;;;;;;5040822;28;20192;-83
2021/06/14 09:18:23;;;;;;;5.20;2.50;;;;;;;;;;5024670;28;20570;-84
2021/06/14 09:21:29;;;;;;;5.07;2.00;;;;;;;;;;5047227;28;20642;-87
2021/06/14 09:24:33;;;;;;;4.30;1.88;;;;;;;;;;5023378;28;20184;-87
2021/06/14 09:27:42;;;;;;;6.03;2.13;;;;;;;;;;5011857;28;20218;-87
2021/06/14 09:30:46;;;;;;;5.85;2.30;;;;;;;;;;5022054;28;20660;-88
2021/06/14 09:33:50;;;;;;;7.15;2.60;;;;;;;;;;5023280;28;20663;-87
2021/06/14 09:36:57;;;;;;;6.57;2.72;;;;;;;;;;5012140;28;20196;-88
2021/06/14 09:40:01;;;;;;;18.05;2.97;;;;;;;;;;5022909;28;20222;-87
2021/06/14 09:43:08;;;;;;;4.45;2.08;;;;;;;;;;5022885;28;20640;-88
2021/06/14 09:46:30;;;;;;;5.90;2.00;;;;;;;;;;5022892;28;20516;-87
2021/06/14 09:49:36;;;;;;;4.93;2.28;;;;;;;;;;5022764;28;20220;-87
2021/06/14 09:52:40;;;;;;;5.85;1.95;;;;;;;;;;5011491;28;20179;-87
2021/06/14 09:55:48;;;;;;;11.02;2.70;;;;;;;;;;5011503;28;20197;-88
2021/06/14 09:58:56;;;;;;;7.30;2.60;;;;;;;;;;4999895;28;20211;-88
2021/06/14 10:02:18;;;;;;;4.65;2.30;;;;;;;;;;5022538;28;20183;-87
2021/06/14 10:05:23;;;;;;;3.90;1.90;;;;;;;;;;5022717;28;20178;-87
2021/06/14 10:08:29;;;;;;;4.15;1.80;;;;;;;;;;5021689;28;20236;-87
2021/06/14 13:10:01;;;;;;;4.97;1.58;;;;;;;;;;5035726;28;20565;-87
2021/06/14 13:13:17;;;;;;;3.72;1.85;;;;;;;;;;5023796;28;20181;-87
2021/06/14 13:16:22;;;;;;;6.95;2.00;;;;;;;;;;5011958;28;20541;-87
2021/06/14 13:19:28;;;;;;;6.32;1.98;;;;;;;;;;5023056;28;20225;-88
2021/06/14 13:22:35;;;;;;;11.32;2.10;;;;;;;;;;5034922;28;20636;-87
2021/06/14 13:25:45;;;;;;;8.65;2.17;;;;;;;;;;5012079;28;20524;-87
2021/06/14 13:28:50;;;;;;;6.05;1.85;;;;;;;;;;5023156;28;20229;-87
2021/06/14 13:32:19;;;;;;;4.75;1.70;;;;;;;;;;5012076;28;20541;-87
2021/06/14 13:35:23;;;;;;;3.15;1.42;;;;;;;;;;5011881;28;20624;-87
2021/06/14 13:38:31;;;;;;;11.40;2.30;;;;;;;;;;5035295;28;20209;-87
2021/06/14 13:41:37;;;;;;;4.68;1.95;;;;;;;;;;5011642;28;20173;-87
2021/06/14 13:44:52;;;;;;;7.03;1.85;;;;;;;;;;5011420;28;20193;-87
2021/06/14 13:48:07;;;;;;;2.47;1.60;;;;;;;;;;5034279;28;20213;-87
2021/06/14 13:51:14;;;;;;;2.88;1.77;;;;;;;;;;5022973;28;20177;-87
2021/06/14 13:54:18;;;;;;;9.02;2.10;;;;;;;;;;5022709;28;20181;-87
2021/06/14 13:57:23;;;;;;;4.72;1.98;;;;;;;;;;5022760;28;20176;-87
2021/06/14 14:00:28;;;;;;;3.55;1.70;;;;;;;;;;5034791;28;20185;-87
2021/06/14 14:03:32;;;;;;;6.55;2.10;;;;;;;;;;5022593;28;20181;-87
2021/06/14 14:06:37;;;;;;;5.85;1.88;;;;;;;;;;5011684;28;20200;-87
2021/06/14 14:09:42;;;;;;;3.10;1.77;;;;;;;;;;5022361;28;20204;-87
2021/06/14 14:12:46;;;;;;;7.90;1.70;;;;;;;;;;5022697;28;20178;-87
2021/06/14 14:15:50;;;;;;;3.83;1.45;;;;;;;;;;5036691;28;20536;-88
2021/06/14 14:18:55;;;;;;;3.58;1.73;;;;;;;;;;5012918;28;20224;-88
2021/06/14 14:21:59;;;;;;;4.95;1.60;;;;;;;;;;5024812;28;20177;-89
2021/06/14 14:25:05;;;;;;;4.85;1.50;;;;;;;;;;5035856;28;20181;-88
2021/06/14 14:28:09;;;;;;;3.00;1.52;;;;;;;;;;5022216;28;20208;-88
2021/06/14 14:31:14;;;;;;;2.35;1.48;;;;;;;;;;5022261;28;20181;-89
2021/06/14 14:34:22;;;;;;;6.68;1.92;;;;;;;;;;5033475;28;20185;-88
2021/06/14 14:37:26;;;;;;;3.90;1.70;;;;;;;;;;5022581;28;20178;-88
2021/06/14 14:40:34;;;;;;;2.67;1.38;;;;;;;;;;5033628;28;20628;-88
2021/06/14 14:43:44;;;;;;;5.60;1.52;;;;;;;;;;5022075;28;20181;-88
2021/06/14 14:46:49;;;;;;;5.20;1.80;;;;;;;;;;5010701;28;20190;-89
2021/06/14 14:49:53;;;;;;;55.15;5.65;;;;;;;;;;5033635;28;20221;-88
2021/06/14 14:52:58;;;;;;;5.28;1.48;;;;;;;;;;5021778;28;20185;-89
2021/06/14 14:56:03;;;;;;;4.63;1.50;;;;;;;;;;5010521;28;20177;-89
2021/06/14 14:59:07;;;;;;;4.07;1.58;;;;;;;;;;5032851;28;20213;-88
2021/06/14 15:02:12;;;;;;;6.25;1.55;;;;;;;;;;5021858;28;20185;-88
2021/06/14 15:05:17;;;;;;;10.32;1.92;;;;;;;;;;5021834;28;20185;-88
2021/06/14 15:08:21;;;;;;;4.60;1.75;;;;;;;;;;5010152;28;20586;-88
2021/06/14 15:11:26;;;;;;;2.22;1.40;;;;;;;;;;5021600;28;20624;-88
2021/06/14 15:14:30;;;;;;;3.75;1.67;;;;;;;;;;5010278;28;20181;-89
2021/06/14 15:17:36;;;;;;;4.35;2.22;;;;;;;;;;5032334;28;20201;-88
2021/06/14 15:20:40;;;;;;;2.35;1.38;;;;;;;;;;5021213;28;20201;-88
2021/06/14 15:23:45;;;;;;;2.70;1.30;;;;;;;;;;5047885;22;20185;-86
2021/06/14 15:26:49;;;;;;;7.15;1.80;;;;;;;;;;5001653;28;20641;-86
2021/06/14 15:29:53;;;;;;;2.85;1.20;;;;;;;;;;4990646;28;20182;-85
2021/06/14 15:32:59;;;;;;;4.10;1.77;;;;;;;;;;5001638;28;20181;-85
2021/06/14 15:36:05;;;;;;;6.00;1.90;;;;;;;;;;4993992;28;20182;-85
2021/06/14 15:39:10;;;;;;;4.32;1.33;;;;;;;;;;4970834;28;20183;-85
2021/06/14 15:42:14;;;;;;;3.42;1.52;;;;;;;;;;4971002;28;20170;-85
2021/06/14 15:45:20;;;;;;;2.97;1.75;;;;;;;;;;4993307;28;20692;-85
2021/06/14 15:48:24;;;;;;;2.50;1.67;;;;;;;;;;4970777;28;20218;-85
2021/06/14 15:51:29;;;;;;;2.65;1.45;;;;;;;;;;4993043;28;20194;-85
2021/06/14 15:54:33;;;;;;;4.13;1.50;;;;;;;;;;4970788;28;20222;-85
2021/06/14 15:57:38;;;;;;;3.05;1.52;;;;;;;;;;4981639;28;20672;-84
2021/06/14 16:00:45;;;;;;;2.80;2.08;;;;;;;;;;4970895;28;20204;-86
2021/06/14 16:38:16;;;;;;;5.27;2.40;;;;;;;;;;4978596;28;20211;-88
2021/06/14 16:41:21;;;;;;;22.03;2.87;;;;;;;;;;4960490;28;20178;-88
2021/06/14 16:44:26;;;;;;;5.57;1.57;;;;;;;;;;4983152;28;20217;-88
2021/06/14 16:47:31;;;;;;;6.27;2.30;;;;;;;;;;4960556;28;20185;-88
2021/06/14 16:50:36;;;;;;;4.37;1.83;;;;;;;;;;4959759;28;20179;-88
2021/06/14 16:53:41;;;;;;;4.03;1.80;;;;;;;;;;4970215;28;20185;-87
2021/06/14 16:56:47;;;;;;;7.53;2.00;;;;;;;;;;4993213;28;20198;-88
2021/06/14 16:59:52;;;;;;;17.13;2.67;;;;;;;;;;4971378;28;20187;-89
2021/06/14 17:02:57;;;;;;;6.23;1.73;;;;;;;;;;4973015;28;20634;-87
2021/06/14 17:06:01;;;;;;;7.23;2.27;;;;;;;;;;4973371;28;20179;-87
2021/06/14 17:09:05;;;;;;;2.47;1.67;;;;;;;;;;4973400;28;20212;-87
2021/06/14 17:12:10;;;;;;;9.57;2.70;;;;;;;;;;4973476;28;20185;-87
2021/06/14 17:15:17;;;;;;;8.13;2.17;;;;;;;;;;4973175;28;20218;-88
2021/06/14 17:18:21;;;;;;;9.57;2.30;;;;;;;;;;4973387;28;20178;-88
2021/06/14 17:21:26;;;;;;;6.20;2.07;;;;;;;;;;4984377;28;20528;-87
2021/06/14 17:24:30;;;;;;;2.83;1.90;;;;;;;;;;4984155;28;20220;-87
2021/06/14 17:27:35;;;;;;;3.50;1.70;;;;;;;;;;4995399;28;20202;-87
2021/06/14 17:30:39;;;;;;;7.33;2.10;;;;;;;;;;4980566;28;20593;-85
2021/06/14 17:33:44;;;;;;;9.97;2.10;;;;;;;;;;4980282;28;20188;-86
2021/06/14 17:36:48;;;;;;;4.63;1.50;;;;;;;;;;4991286;28;20179;-86
2021/06/14 17:39:53;;;;;;;5.07;1.70;;;;;;;;;;4980265;28;20176;-86
2021/06/14 17:42:58;;;;;;;5.03;2.00;;;;;;;;;;4990972;28;20724;-85
2021/06/14 17:46:02;;;;;;;5.67;1.90;;;;;;;;;;4980098;28;20182;-85
2021/06/14 17:49:07;;;;;;;5.33;2.00;;;;;;;;;;4980137;28;20217;-85
2021/06/14 17:52:12;;;;;;;3.23;2.13;;;;;;;;;;4968817;28;20186;-86
2021/06/14 17:55:17;;;;;;;4.13;1.93;;;;;;;;;;4968512;28;20229;-85
2021/06/14 17:58:21;;;;;;;5.87;1.70;;;;;;;;;;4968852;28;20202;-85
2021/06/14 18:01:25;;;;;;;11.13;2.33;;;;;;;;;;4992161;28;20202;-85
2021/06/14 18:04:30;;;;;;;4.80;1.87;;;;;;;;;;4991425;28;20214;-85
2021/06/14 18:07:35;;;;;;;3.67;1.83;;;;;;;;;;4968891;28;20178;-85
2021/06/14 18:10:41;;;;;;;5.23;1.90;;;;;;;;;;4980482;28;20198;-85
2021/06/14 18:13:45;;;;;;;2.93;1.70;;;;;;;;;;4957471;28;20657;-85
2021/06/14 18:16:49;;;;;;;4.00;1.90;;;;;;;;;;4969086;28;20677;-85
2021/06/14 18:19:54;;;;;;;3.27;1.83;;;;;;;;;;4968656;28;20705;-85
2021/06/14 18:23:00;;;;;;;2.80;1.70;;;;;;;;;;4991909;28;20182;-86
2021/06/14 18:26:05;;;;;;;4.73;1.63;;;;;;;;;;4975697;28;20182;-85
2021/06/14 18:29:13;;;;;;;2.60;1.80;;;;;;;;;;4964428;28;20763;-85
2021/06/14 18:32:18;;;;;;;6.87;2.00;;;;;;;;;;4970198;28;20187;-86
2021/06/14 18:35:23;;;;;;;5.77;1.77;;;;;;;;;;4992998;28;20213;-85
2021/06/14 18:38:30;;;;;;;4.37;1.87;;;;;;;;;;4981719;28;20210;-85
2021/06/14 18:41:35;;;;;;;3.87;2.00;;;;;;;;;;4971441;28;20178;-85
2021/06/14 18:44:39;;;;;;;4.03;2.40;;;;;;;;;;4982185;28;20213;-85
2021/06/14 18:47:44;;;;;;;3.47;1.90;;;;;;;;;;4981701;28;20186;-84
2021/06/14 18:50:49;;;;;;;5.90;1.90;;;;;;;;;;4992735;28;20210;-84
2021/06/14 18:53:56;;;;;;;3.90;1.90;;;;;;;;;;4992658;28;20713;-85
2021/06/14 18:57:01;;;;;;;3.63;1.83;;;;;;;;;;4981891;28;20182;-85
2021/06/14 19:00:06;;;;;;;5.07;2.10;;;;;;;;;;4981570;28;20530;-85
2021/06/14 19:03:10;;;;;;;5.47;1.97;;;;;;;;;;4970749;28;20186;-84
2021/06/14 19:06:14;;;;;;;4.87;2.10;;;;;;;;;;4970289;28;20177;-85
2021/06/14 19:09:20;;;;;;;4.87;2.00;;;;;;;;;;4970098;28;20217;-86
2021/06/14 19:12:25;;;;;;;5.83;2.20;;;;;;;;;;4981000;28;20182;-85
2021/06/14 19:15:30;;;;;;;4.67;2.03;;;;;;;;;;4969938;28;20225;-85
2021/06/14 19:18:34;;;;;;;4.80;2.37;;;;;;;;;;4992570;28;20522;-84
2021/06/14 19:21:38;;;;;;;3.80;2.37;;;;;;;;;;4970522;28;20183;-85
2021/06/14 19:24:44;;;;;;;2.70;1.60;;;;;;;;;;4992635;28;20450;-85
2021/06/14 19:27:49;;;;;;;3.93;2.10;;;;;;;;;;4970698;28;20182;-84
2021/06/14 19:30:53;;;;;;;2.97;1.90;;;;;;;;;;4981636;28;20218;-85
2021/06/14 19:33:57;;;;;;;5.93;2.17;;;;;;;;;;4993693;28;20225;-88
2021/06/14 19:37:01;;;;;;;2.80;1.80;;;;;;;;;;4970093;28;20182;-87
2021/06/14 19:40:09;;;;;;;3.50;2.17;;;;;;;;;;4982680;28;20175;-87
2021/06/14 19:43:13;;;;;;;4.60;2.00;;;;;;;;;;4974281;28;20182;-87
2021/06/14 19:46:17;;;;;;;6.87;1.90;;;;;;;;;;4996863;28;20637;-87
2021/06/14 19:49:22;;;;;;;4.30;2.13;;;;;;;;;;4985034;28;20210;-86
2021/06/14 19:52:26;;;;;;;4.43;2.33;;;;;;;;;;4985278;28;20217;-87
2021/06/14 19:55:31;;;;;;;3.53;2.40;;;;;;;;;;4972713;28;20237;-86
2021/06/14 19:58:35;;;;;;;7.07;2.20;;;;;;;;;;4984574;28;20190;-87
2021/06/14 20:01:39;;;;;;;3.47;2.23;;;;;;;;;;4984173;28;20566;-87
2021/06/14 20:04:43;;;;;;;7.67;2.40;;;;;;;;;;4995171;28;20221;-87
2021/06/14 20:07:48;;;;;;;4.73;2.27;;;;;;;;;;4972657;28;20202;-87
2021/06/14 20:10:52;;;;;;;6.37;2.30;;;;;;;;;;4983197;28;20218;-87
2021/06/14 20:13:56;;;;;;;7.43;2.37;;;;;;;;;;4972249;28;20210;-86
2021/06/14 20:17:01;;;;;;;5.40;2.30;;;;;;;;;;4994358;28;20182;-86
2021/06/14 20:20:10;;;;;;;4.77;2.10;;;;;;;;;;4972089;28;20190;-87
2021/06/14 20:23:14;;;;;;;4.03;2.30;;;;;;;;;;4994512;28;20187;-87
2021/06/14 20:26:18;;;;;;;3.90;2.50;;;;;;;;;;4972224;28;20190;-87
2021/06/14 20:29:23;;;;;;;4.10;2.40;;;;;;;;;;4994118;28;20213;-87
2021/06/14 20:32:27;;;;;;;7.57;2.30;;;;;;;;;;4994837;28;20198;-87
2021/06/14 20:35:33;;;;;;;4.73;2.33;;;;;;;;;;4972612;28;20221;-87
2021/06/14 20:38:38;;;;;;;4.67;2.53;;;;;;;;;;4981444;28;20206;-87
2021/06/14 20:41:44;;;;;;;9.73;2.37;;;;;;;;;;4969911;28;20531;-87
2021/06/14 20:44:48;;;;;;;4.67;2.50;;;;;;;;;;4970204;28;20209;-86
2021/06/14 20:47:52;;;;;;;4.83;2.43;;;;;;;;;;4969883;28;20182;-87
2021/06/14 20:50:57;;;;;;;4.30;2.50;;;;;;;;;;4979976;28;20214;-87
2021/06/14 20:54:01;;;;;;;4.97;2.50;;;;;;;;;;4969579;28;20716;-87
2021/06/14 20:57:06;;;;;;;4.20;2.10;;;;;;;;;;4969998;28;20190;-87
2021/06/14 21:00:13;;;;;;;3.63;2.57;;;;;;;;;;4969728;28;20174;-87
2021/06/14 21:03:17;;;;;;;4.97;2.23;;;;;;;;;;4982510;28;20202;-91
2021/06/14 21:06:21;;;;;;;9.90;2.87;;;;;;;;;;4973658;28;20197;-88
2021/06/14 21:09:27;;;;;;;5.40;2.50;;;;;;;;;;4984496;28;20178;-87
2021/06/14 21:12:31;;;;;;;4.00;2.50;;;;;;;;;;4995706;28;20194;-88
2021/06/14 21:15:36;;;;;;;2.87;2.30;;;;;;;;;;4995424;28;20222;-88
2021/06/14 21:18:40;;;;;;;4.83;2.73;;;;;;;;;;4962307;28;20186;-88
2021/06/14 21:21:44;;;;;;;5.93;2.43;;;;;;;;;;4995724;28;20178;-88
2021/06/14 21:24:48;;;;;;;6.27;2.53;;;;;;;;;;5018816;22;20529;-89
2021/06/14 21:27:53;;;;;;;4.13;2.50;;;;;;;;;;5020790;28;20519;-89
2021/06/14 21:30:58;;;;;;;4.23;2.87;;;;;;;;;;5043230;28;20208;-88
2021/06/14 21:34:08;;;;;;;7.13;2.70;;;;;;;;;;5031718;28;20188;-89
2021/06/14 21:37:13;;;;;;;5.37;2.90;;;;;;;;;;5012208;28;20532;-90
2021/06/14 21:40:19;;;;;;;5.17;2.77;;;;;;;;;;5011992;28;20501;-90
2021/06/14 21:43:23;;;;;;;6.13;2.80;;;;;;;;;;5011655;28;20197;-89
2021/06/14 21:46:27;;;;;;;4.87;2.70;;;;;;;;;;5000529;28;20576;-90
2021/06/14 21:49:31;;;;;;;5.35;2.95;;;;;;;;;;5012081;28;20193;-90
2021/06/14 21:52:36;;;;;;;4.90;2.37;;;;;;;;;;5000726;28;20173;-90
2021/06/14 21:55:41;;;;;;;4.93;2.70;;;;;;;;;;5000519;28;20213;-89
2021/06/14 21:58:45;;;;;;;4.63;2.30;;;;;;;;;;5000224;28;20200;-90
2021/06/14 22:01:49;;;;;;;3.83;2.70;;;;;;;;;;5000011;28;20193;-90
2021/06/14 22:04:53;;;;;;;5.27;2.80;;;;;;;;;;5011706;28;20564;-90
2021/06/14 22:07:58;;;;;;;3.50;2.63;;;;;;;;;;5011670;28;20627;-90
2021/06/14 22:11:03;;;;;;;3.77;2.40;;;;;;;;;;5011580;28;20212;-90